sensor_id;sensor_type;location;lat;lon;timestamp;P1;durP1;ratioP1;P2;durP2;ratioP2
27412;SDS011;14871;52.702;5.230;2022-08-14T00:01:08;8.00;;;6.78;;
27412;SDS011;14871;52.702;5.230;2022-08-14T00:03:34;9.55;;;6.47;;
27412;SDS011;14871;52.702;5.230;2022-08-14T00:06:00;7.22;;;6.22;;
27412;SDS011;14871;52.702;5.230;2022-08-14T00:08:27;9.85;;;6.93;;
27412;SDS011;14871;52.702;5.230;2022-08-14T00:10:54;11.30;;;6.97;;
27412;SDS011;14871;52.702;5.230;2022-08-14T00:13:21;7.88;;;6.70;;
27412;SDS011;14871;52.702;5.230;2022-08-14T00:15:49;7.93;;;7.15;;
27412;SDS011;14871;52.702;5.230;2022-08-14T00:18:20;7.75;;;6.72;;
27412;SDS011;14871;52.702;5.230;2022-08-14T00:20:47;7.68;;;6.97;;
27412;SDS011;14871;52.702;5.230;2022-08-14T00:23:14;7.70;;;7.00;;
27412;SDS011;14871;52.702;5.230;2022-08-14T00:25:41;8.10;;;7.28;;
27412;SDS011;14871;52.702;5.230;2022-08-14T00:28:09;12.50;;;7.28;;
27412;SDS011;14871;52.702;5.230;2022-08-14T00:30:35;10.07;;;7.18;;
27412;SDS011;14871;52.702;5.230;2022-08-14T00:33:01;7.07;;;6.47;;
27412;SDS011;14871;52.702;5.230;2022-08-14T00:35:28;10.52;;;7.38;;
27412;SDS011;14871;52.702;5.230;2022-08-14T00:37:54;7.78;;;7.00;;
27412;SDS011;14871;52.702;5.230;2022-08-14T00:40:20;10.55;;;6.75;;
27412;SDS011;14871;52.702;5.230;2022-08-14T00:42:46;7.95;;;7.15;;
27412;SDS011;14871;52.702;5.230;2022-08-14T00:45:13;7.80;;;7.00;;
27412;SDS011;14871;52.702;5.230;2022-08-14T00:47:41;10.00;;;7.32;;
27412;SDS011;14871;52.702;5.230;2022-08-14T00:50:09;13.52;;;7.47;;
27412;SDS011;14871;52.702;5.230;2022-08-14T00:52:37;8.23;;;7.53;;
27412;SDS011;14871;52.702;5.230;2022-08-14T00:55:04;9.95;;;7.35;;
27412;SDS011;14871;52.702;5.230;2022-08-14T00:57:31;8.45;;;7.70;;
27412;SDS011;14871;52.702;5.230;2022-08-14T00:59:58;8.30;;;7.60;;
27412;SDS011;14871;52.702;5.230;2022-08-14T01:02:24;8.35;;;7.65;;
27412;SDS011;14871;52.702;5.230;2022-08-14T01:04:51;8.30;;;7.35;;
27412;SDS011;14871;52.702;5.230;2022-08-14T01:07:19;8.75;;;7.85;;
27412;SDS011;14871;52.702;5.230;2022-08-14T01:09:47;9.90;;;7.80;;
27412;SDS011;14871;52.702;5.230;2022-08-14T01:12:14;12.75;;;8.38;;
27412;SDS011;14871;52.702;5.230;2022-08-14T01:14:41;9.45;;;8.65;;
27412;SDS011;14871;52.702;5.230;2022-08-14T01:17:07;8.75;;;7.95;;
27412;SDS011;14871;52.702;5.230;2022-08-14T01:19:33;10.18;;;8.80;;
27412;SDS011;14871;52.702;5.230;2022-08-14T01:22:18;9.85;;;8.70;;
27412;SDS011;14871;52.702;5.230;2022-08-14T01:24:43;9.38;;;8.57;;
27412;SDS011;14871;52.702;5.230;2022-08-14T01:27:13;9.40;;;8.40;;
27412;SDS011;14871;52.702;5.230;2022-08-14T01:29:47;10.88;;;8.05;;
27412;SDS011;14871;52.702;5.230;2022-08-14T01:32:16;11.60;;;8.05;;
27412;SDS011;14871;52.702;5.230;2022-08-14T01:34:43;11.20;;;9.02;;
27412;SDS011;14871;52.702;5.230;2022-08-14T01:37:15;10.20;;;9.05;;
27412;SDS011;14871;52.702;5.230;2022-08-14T01:39:41;9.93;;;8.88;;
27412;SDS011;14871;52.702;5.230;2022-08-14T01:42:07;9.52;;;8.65;;
27412;SDS011;14871;52.702;5.230;2022-08-14T01:44:32;11.98;;;7.68;;
27412;SDS011;14871;52.702;5.230;2022-08-14T01:47:01;9.48;;;8.48;;
27412;SDS011;14871;52.702;5.230;2022-08-14T01:49:41;10.80;;;8.95;;
27412;SDS011;14871;52.702;5.230;2022-08-14T01:52:07;10.35;;;9.25;;
27412;SDS011;14871;52.702;5.230;2022-08-14T01:54:33;10.10;;;9.15;;
27412;SDS011;14871;52.702;5.230;2022-08-14T01:57:00;12.15;;;9.07;;
27412;SDS011;14871;52.702;5.230;2022-08-14T01:59:29;10.52;;;9.52;;
27412;SDS011;14871;52.702;5.230;2022-08-14T02:01:58;12.05;;;8.73;;
27412;SDS011;14871;52.702;5.230;2022-08-14T02:04:30;10.20;;;9.20;;
27412;SDS011;14871;52.702;5.230;2022-08-14T02:06:57;11.20;;;9.20;;
27412;SDS011;14871;52.702;5.230;2022-08-14T02:09:23;10.32;;;9.32;;
27412;SDS011;14871;52.702;5.230;2022-08-14T02:11:50;11.43;;;9.70;;
27412;SDS011;14871;52.702;5.230;2022-08-14T02:14:16;12.25;;;10.30;;
27412;SDS011;14871;52.702;5.230;2022-08-14T02:16:43;12.05;;;9.18;;
27412;SDS011;14871;52.702;5.230;2022-08-14T02:19:13;12.20;;;8.98;;
27412;SDS011;14871;52.702;5.230;2022-08-14T02:21:42;11.85;;;9.85;;
27412;SDS011;14871;52.702;5.230;2022-08-14T02:24:10;10.77;;;9.52;;
27412;SDS011;14871;52.702;5.230;2022-08-14T02:26:37;11.73;;;10.27;;
27412;SDS011;14871;52.702;5.230;2022-08-14T02:29:06;10.65;;;9.60;;
27412;SDS011;14871;52.702;5.230;2022-08-14T02:31:34;10.15;;;9.15;;
27412;SDS011;14871;52.702;5.230;2022-08-14T02:34:03;11.52;;;10.13;;
27412;SDS011;14871;52.702;5.230;2022-08-14T02:36:54;9.65;;;8.75;;
27412;SDS011;14871;52.702;5.230;2022-08-14T02:39:23;11.15;;;10.07;;
27412;SDS011;14871;52.702;5.230;2022-08-14T02:41:50;11.10;;;9.70;;
27412;SDS011;14871;52.702;5.230;2022-08-14T02:44:16;11.07;;;9.68;;
27412;SDS011;14871;52.702;5.230;2022-08-14T02:46:47;10.48;;;9.43;;
27412;SDS011;14871;52.702;5.230;2022-08-14T02:49:14;11.02;;;10.00;;
27412;SDS011;14871;52.702;5.230;2022-08-14T02:51:39;10.18;;;9.18;;
27412;SDS011;14871;52.702;5.230;2022-08-14T02:54:06;10.82;;;9.82;;
27412;SDS011;14871;52.702;5.230;2022-08-14T02:56:33;12.57;;;9.50;;
27412;SDS011;14871;52.702;5.230;2022-08-14T02:59:02;10.63;;;9.68;;
27412;SDS011;14871;52.702;5.230;2022-08-14T03:01:30;10.88;;;9.77;;
27412;SDS011;14871;52.702;5.230;2022-08-14T03:03:57;10.68;;;9.48;;
27412;SDS011;14871;52.702;5.230;2022-08-14T03:06:23;10.85;;;9.85;;
27412;SDS011;14871;52.702;5.230;2022-08-14T03:08:50;11.38;;;10.07;;
27412;SDS011;14871;52.702;5.230;2022-08-14T03:11:18;11.27;;;10.13;;
27412;SDS011;14871;52.702;5.230;2022-08-14T03:13:46;11.85;;;9.50;;
27412;SDS011;14871;52.702;5.230;2022-08-14T03:16:16;10.98;;;9.68;;
27412;SDS011;14871;52.702;5.230;2022-08-14T03:18:47;11.43;;;9.93;;
27412;SDS011;14871;52.702;5.230;2022-08-14T03:21:14;10.80;;;9.68;;
27412;SDS011;14871;52.702;5.230;2022-08-14T03:23:42;10.77;;;9.88;;
27412;SDS011;14871;52.702;5.230;2022-08-14T03:26:15;12.98;;;10.32;;
27412;SDS011;14871;52.702;5.230;2022-08-14T03:28:44;11.48;;;9.85;;
27412;SDS011;14871;52.702;5.230;2022-08-14T03:31:12;12.30;;;10.90;;
27412;SDS011;14871;52.702;5.230;2022-08-14T03:33:39;11.13;;;9.93;;
27412;SDS011;14871;52.702;5.230;2022-08-14T03:36:06;11.60;;;10.50;;
27412;SDS011;14871;52.702;5.230;2022-08-14T03:38:40;12.80;;;11.50;;
27412;SDS011;14871;52.702;5.230;2022-08-14T03:41:13;10.43;;;9.43;;
27412;SDS011;14871;52.702;5.230;2022-08-14T03:43:43;12.35;;;10.00;;
27412;SDS011;14871;52.702;5.230;2022-08-14T03:46:14;11.65;;;10.48;;
27412;SDS011;14871;52.702;5.230;2022-08-14T03:48:41;11.07;;;9.90;;
27412;SDS011;14871;52.702;5.230;2022-08-14T03:51:08;11.30;;;10.15;;
27412;SDS011;14871;52.702;5.230;2022-08-14T03:53:36;11.55;;;9.98;;
27412;SDS011;14871;52.702;5.230;2022-08-14T03:56:03;11.82;;;10.73;;
27412;SDS011;14871;52.702;5.230;2022-08-14T03:58:30;11.77;;;10.40;;
27412;SDS011;14871;52.702;5.230;2022-08-14T04:00:56;14.23;;;10.68;;
27412;SDS011;14871;52.702;5.230;2022-08-14T04:03:23;11.13;;;9.60;;
27412;SDS011;14871;52.702;5.230;2022-08-14T04:05:50;11.27;;;10.07;;
27412;SDS011;14871;52.702;5.230;2022-08-14T04:08:17;11.57;;;10.32;;
27412;SDS011;14871;52.702;5.230;2022-08-14T04:10:42;13.90;;;10.43;;
27412;SDS011;14871;52.702;5.230;2022-08-14T04:13:10;11.63;;;10.43;;
27412;SDS011;14871;52.702;5.230;2022-08-14T04:15:36;12.15;;;10.95;;
27412;SDS011;14871;52.702;5.230;2022-08-14T04:18:05;13.90;;;10.23;;
27412;SDS011;14871;52.702;5.230;2022-08-14T04:20:32;13.27;;;10.60;;
27412;SDS011;14871;52.702;5.230;2022-08-14T04:22:59;11.38;;;10.30;;
27412;SDS011;14871;52.702;5.230;2022-08-14T04:25:24;12.77;;;11.48;;
27412;SDS011;14871;52.702;5.230;2022-08-14T04:27:50;11.35;;;10.25;;
27412;SDS011;14871;52.702;5.230;2022-08-14T04:30:15;12.40;;;10.93;;
27412;SDS011;14871;52.702;5.230;2022-08-14T04:32:41;13.18;;;10.80;;
27412;SDS011;14871;52.702;5.230;2022-08-14T04:35:07;12.85;;;11.43;;
27412;SDS011;14871;52.702;5.230;2022-08-14T04:37:34;13.90;;;10.88;;
27412;SDS011;14871;52.702;5.230;2022-08-14T04:40:18;11.85;;;10.63;;
27412;SDS011;14871;52.702;5.230;2022-08-14T04:43:03;12.55;;;11.35;;
27412;SDS011;14871;52.702;5.230;2022-08-14T04:45:47;13.55;;;11.73;;
27412;SDS011;14871;52.702;5.230;2022-08-14T04:48:13;12.35;;;11.10;;
27412;SDS011;14871;52.702;5.230;2022-08-14T04:50:42;11.55;;;10.25;;
27412;SDS011;14871;52.702;5.230;2022-08-14T04:53:11;12.32;;;10.55;;
27412;SDS011;14871;52.702;5.230;2022-08-14T04:55:40;11.73;;;10.52;;
27412;SDS011;14871;52.702;5.230;2022-08-14T04:58:12;12.32;;;10.80;;
27412;SDS011;14871;52.702;5.230;2022-08-14T05:00:41;11.85;;;10.75;;
27412;SDS011;14871;52.702;5.230;2022-08-14T05:03:14;12.77;;;11.43;;
27412;SDS011;14871;52.702;5.230;2022-08-14T05:05:44;12.68;;;10.82;;
27412;SDS011;14871;52.702;5.230;2022-08-14T05:08:14;13.38;;;12.00;;
27412;SDS011;14871;52.702;5.230;2022-08-14T05:10:41;13.13;;;11.88;;
27412;SDS011;14871;52.702;5.230;2022-08-14T05:13:09;12.32;;;11.13;;
27412;SDS011;14871;52.702;5.230;2022-08-14T05:15:35;12.63;;;11.32;;
27412;SDS011;14871;52.702;5.230;2022-08-14T05:18:03;15.65;;;11.63;;
27412;SDS011;14871;52.702;5.230;2022-08-14T05:20:37;12.43;;;11.13;;
27412;SDS011;14871;52.702;5.230;2022-08-14T05:23:04;15.63;;;11.65;;
27412;SDS011;14871;52.702;5.230;2022-08-14T05:25:31;13.05;;;11.45;;
27412;SDS011;14871;52.702;5.230;2022-08-14T05:28:04;15.50;;;12.43;;
27412;SDS011;14871;52.702;5.230;2022-08-14T05:30:47;13.23;;;11.95;;
27412;SDS011;14871;52.702;5.230;2022-08-14T05:33:15;13.93;;;12.63;;
27412;SDS011;14871;52.702;5.230;2022-08-14T05:35:43;13.43;;;12.23;;
27412;SDS011;14871;52.702;5.230;2022-08-14T05:38:09;14.98;;;12.57;;
27412;SDS011;14871;52.702;5.230;2022-08-14T05:40:40;13.57;;;12.18;;
27412;SDS011;14871;52.702;5.230;2022-08-14T05:43:05;14.20;;;12.70;;
27412;SDS011;14871;52.702;5.230;2022-08-14T05:45:31;14.18;;;12.88;;
27412;SDS011;14871;52.702;5.230;2022-08-14T05:47:59;14.10;;;12.73;;
27412;SDS011;14871;52.702;5.230;2022-08-14T05:50:28;14.32;;;13.05;;
27412;SDS011;14871;52.702;5.230;2022-08-14T05:52:55;15.15;;;13.73;;
27412;SDS011;14871;52.702;5.230;2022-08-14T05:55:21;13.57;;;12.20;;
27412;SDS011;14871;52.702;5.230;2022-08-14T05:57:47;13.85;;;12.55;;
27412;SDS011;14871;52.702;5.230;2022-08-14T06:00:26;15.60;;;12.98;;
27412;SDS011;14871;52.702;5.230;2022-08-14T06:02:53;15.00;;;12.70;;
27412;SDS011;14871;52.702;5.230;2022-08-14T06:05:20;13.98;;;12.68;;
27412;SDS011;14871;52.702;5.230;2022-08-14T06:07:47;14.82;;;13.23;;
27412;SDS011;14871;52.702;5.230;2022-08-14T06:10:12;15.90;;;12.98;;
27412;SDS011;14871;52.702;5.230;2022-08-14T06:12:38;14.45;;;12.98;;
27412;SDS011;14871;52.702;5.230;2022-08-14T06:15:04;14.57;;;13.05;;
27412;SDS011;14871;52.702;5.230;2022-08-14T06:17:31;15.45;;;12.60;;
27412;SDS011;14871;52.702;5.230;2022-08-14T06:20:06;13.68;;;12.30;;
27412;SDS011;14871;52.702;5.230;2022-08-14T06:22:32;13.75;;;12.48;;
27412;SDS011;14871;52.702;5.230;2022-08-14T06:24:58;15.18;;;13.55;;
27412;SDS011;14871;52.702;5.230;2022-08-14T06:27:23;14.57;;;12.90;;
27412;SDS011;14871;52.702;5.230;2022-08-14T06:29:49;14.65;;;13.18;;
27412;SDS011;14871;52.702;5.230;2022-08-14T06:32:14;14.10;;;12.80;;
27412;SDS011;14871;52.702;5.230;2022-08-14T06:34:40;14.52;;;13.10;;
27412;SDS011;14871;52.702;5.230;2022-08-14T06:37:06;14.63;;;13.10;;
27412;SDS011;14871;52.702;5.230;2022-08-14T06:39:31;13.57;;;12.20;;
27412;SDS011;14871;52.702;5.230;2022-08-14T06:41:58;14.85;;;13.50;;
27412;SDS011;14871;52.702;5.230;2022-08-14T06:44:24;13.88;;;12.48;;
27412;SDS011;14871;52.702;5.230;2022-08-14T06:46:50;15.98;;;13.95;;
27412;SDS011;14871;52.702;5.230;2022-08-14T06:49:15;15.60;;;13.68;;
27412;SDS011;14871;52.702;5.230;2022-08-14T06:51:41;15.18;;;13.68;;
27412;SDS011;14871;52.702;5.230;2022-08-14T06:54:11;14.73;;;13.32;;
27412;SDS011;14871;52.702;5.230;2022-08-14T06:56:37;14.73;;;13.32;;
27412;SDS011;14871;52.702;5.230;2022-08-14T06:59:03;15.25;;;13.82;;
27412;SDS011;14871;52.702;5.230;2022-08-14T07:01:29;15.43;;;13.75;;
27412;SDS011;14871;52.702;5.230;2022-08-14T07:04:14;13.57;;;12.27;;
27412;SDS011;14871;52.702;5.230;2022-08-14T07:06:58;15.43;;;14.02;;
27412;SDS011;14871;52.702;5.230;2022-08-14T07:09:23;14.80;;;12.02;;
27412;SDS011;14871;52.702;5.230;2022-08-14T07:11:50;15.27;;;13.73;;
27412;SDS011;14871;52.702;5.230;2022-08-14T07:14:16;14.23;;;12.93;;
27412;SDS011;14871;52.702;5.230;2022-08-14T07:16:41;14.43;;;13.10;;
27412;SDS011;14871;52.702;5.230;2022-08-14T07:19:07;14.40;;;13.00;;
27412;SDS011;14871;52.702;5.230;2022-08-14T07:21:33;15.60;;;12.25;;
27412;SDS011;14871;52.702;5.230;2022-08-14T07:24:01;13.55;;;12.07;;
27412;SDS011;14871;52.702;5.230;2022-08-14T07:26:27;14.63;;;13.02;;
27412;SDS011;14871;52.702;5.230;2022-08-14T07:28:52;13.90;;;12.57;;
27412;SDS011;14871;52.702;5.230;2022-08-14T07:31:18;13.90;;;12.63;;
27412;SDS011;14871;52.702;5.230;2022-08-14T07:33:45;14.57;;;12.02;;
27412;SDS011;14871;52.702;5.230;2022-08-14T07:36:13;14.75;;;12.98;;
27412;SDS011;14871;52.702;5.230;2022-08-14T07:38:39;13.88;;;12.52;;
27412;SDS011;14871;52.702;5.230;2022-08-14T07:41:05;14.05;;;12.85;;
27412;SDS011;14871;52.702;5.230;2022-08-14T07:43:32;14.32;;;12.73;;
27412;SDS011;14871;52.702;5.230;2022-08-14T07:45:58;14.68;;;13.25;;
27412;SDS011;14871;52.702;5.230;2022-08-14T07:48:24;14.05;;;12.65;;
27412;SDS011;14871;52.702;5.230;2022-08-14T07:50:50;13.65;;;12.45;;
27412;SDS011;14871;52.702;5.230;2022-08-14T07:53:16;14.20;;;12.48;;
27412;SDS011;14871;52.702;5.230;2022-08-14T07:55:43;14.52;;;13.23;;
27412;SDS011;14871;52.702;5.230;2022-08-14T07:58:12;15.13;;;11.68;;
27412;SDS011;14871;52.702;5.230;2022-08-14T08:00:38;13.15;;;11.85;;
27412;SDS011;14871;52.702;5.230;2022-08-14T08:03:06;13.70;;;12.32;;
27412;SDS011;14871;52.702;5.230;2022-08-14T08:05:35;13.13;;;11.50;;
27412;SDS011;14871;52.702;5.230;2022-08-14T08:08:02;14.32;;;12.98;;
27412;SDS011;14871;52.702;5.230;2022-08-14T08:10:29;14.10;;;12.30;;
27412;SDS011;14871;52.702;5.230;2022-08-14T08:15:29;13.15;;;11.95;;
27412;SDS011;14871;52.702;5.230;2022-08-14T08:17:57;12.85;;;11.55;;
27412;SDS011;14871;52.702;5.230;2022-08-14T08:20:28;14.63;;;11.55;;
27412;SDS011;14871;52.702;5.230;2022-08-14T08:22:56;13.10;;;11.05;;
27412;SDS011;14871;52.702;5.230;2022-08-14T08:25:23;12.65;;;11.45;;
27412;SDS011;14871;52.702;5.230;2022-08-14T08:27:53;12.48;;;11.15;;
27412;SDS011;14871;52.702;5.230;2022-08-14T08:30:19;14.82;;;11.00;;
27412;SDS011;14871;52.702;5.230;2022-08-14T08:32:45;13.20;;;12.00;;
27412;SDS011;14871;52.702;5.230;2022-08-14T08:35:21;12.20;;;11.07;;
27412;SDS011;14871;52.702;5.230;2022-08-14T08:37:49;14.75;;;10.98;;
27412;SDS011;14871;52.702;5.230;2022-08-14T08:40:24;11.57;;;10.48;;
27412;SDS011;14871;52.702;5.230;2022-08-14T08:42:51;14.85;;;11.20;;
27412;SDS011;14871;52.702;5.230;2022-08-14T08:45:17;12.38;;;10.90;;
27412;SDS011;14871;52.702;5.230;2022-08-14T08:47:43;11.43;;;10.20;;
27412;SDS011;14871;52.702;5.230;2022-08-14T08:50:17;11.98;;;10.32;;
27412;SDS011;14871;52.702;5.230;2022-08-14T08:52:52;13.48;;;11.20;;
27412;SDS011;14871;52.702;5.230;2022-08-14T08:55:51;11.73;;;10.65;;
27412;SDS011;14871;52.702;5.230;2022-08-14T08:58:14;11.57;;;10.57;;
27412;SDS011;14871;52.702;5.230;2022-08-14T09:00:44;11.82;;;10.63;;
27412;SDS011;14871;52.702;5.230;2022-08-14T09:03:16;12.00;;;10.75;;
27412;SDS011;14871;52.702;5.230;2022-08-14T09:05:51;10.48;;;9.57;;
27412;SDS011;14871;52.702;5.230;2022-08-14T09:08:19;13.07;;;10.10;;
27412;SDS011;14871;52.702;5.230;2022-08-14T09:10:49;11.13;;;10.02;;
27412;SDS011;14871;52.702;5.230;2022-08-14T09:13:15;10.63;;;9.45;;
27412;SDS011;14871;52.702;5.230;2022-08-14T09:15:42;10.77;;;9.75;;
27412;SDS011;14871;52.702;5.230;2022-08-14T09:18:09;11.75;;;10.05;;
27412;SDS011;14871;52.702;5.230;2022-08-14T09:20:36;11.43;;;10.25;;
27412;SDS011;14871;52.702;5.230;2022-08-14T09:23:04;11.57;;;9.93;;
27412;SDS011;14871;52.702;5.230;2022-08-14T09:25:30;11.25;;;9.60;;
27412;SDS011;14871;52.702;5.230;2022-08-14T09:27:56;10.90;;;9.70;;
27412;SDS011;14871;52.702;5.230;2022-08-14T09:30:22;10.60;;;9.68;;
27412;SDS011;14871;52.702;5.230;2022-08-14T09:47:03;10.65;;;9.75;;
27412;SDS011;14871;52.702;5.230;2022-08-14T09:49:30;10.93;;;9.93;;
27412;SDS011;14871;52.702;5.230;2022-08-14T09:52:07;11.10;;;9.77;;
27412;SDS011;14871;52.702;5.230;2022-08-14T09:54:36;10.85;;;9.85;;
27412;SDS011;14871;52.702;5.230;2022-08-14T09:57:03;11.60;;;10.40;;
27412;SDS011;14871;52.702;5.230;2022-08-14T09:59:45;10.45;;;9.45;;
27412;SDS011;14871;52.702;5.230;2022-08-14T10:05:08;10.43;;;9.27;;
27412;SDS011;14871;52.702;5.230;2022-08-14T10:07:56;10.15;;;9.05;;
27412;SDS011;14871;52.702;5.230;2022-08-14T10:10:31;10.00;;;9.10;;
27412;SDS011;14871;52.702;5.230;2022-08-14T10:13:03;9.68;;;8.77;;
27412;SDS011;14871;52.702;5.230;2022-08-14T10:15:44;10.13;;;8.98;;
27412;SDS011;14871;52.702;5.230;2022-08-14T10:18:11;11.80;;;8.82;;
27412;SDS011;14871;52.702;5.230;2022-08-14T10:20:40;9.65;;;8.75;;
27412;SDS011;14871;52.702;5.230;2022-08-14T10:23:24;9.57;;;8.68;;
27412;SDS011;14871;52.702;5.230;2022-08-14T10:25:52;9.40;;;8.45;;
27412;SDS011;14871;52.702;5.230;2022-08-14T10:28:22;9.60;;;8.65;;
27412;SDS011;14871;52.702;5.230;2022-08-14T10:30:49;13.05;;;8.57;;
27412;SDS011;14871;52.702;5.230;2022-08-14T10:33:28;9.02;;;7.57;;
27412;SDS011;14871;52.702;5.230;2022-08-14T10:35:56;8.45;;;7.65;;
27412;SDS011;14871;52.702;5.230;2022-08-14T10:40:55;9.90;;;8.85;;
27412;SDS011;14871;52.702;5.230;2022-08-14T10:43:33;9.40;;;8.48;;
27412;SDS011;14871;52.702;5.230;2022-08-14T10:45:59;10.35;;;8.63;;
27412;SDS011;14871;52.702;5.230;2022-08-14T10:48:25;8.77;;;7.97;;
27412;SDS011;14871;52.702;5.230;2022-08-14T10:50:52;11.07;;;9.35;;
27412;SDS011;14871;52.702;5.230;2022-08-14T10:53:29;9.60;;;8.80;;
27412;SDS011;14871;52.702;5.230;2022-08-14T10:56:01;8.20;;;7.50;;
27412;SDS011;14871;52.702;5.230;2022-08-14T10:58:32;8.35;;;7.47;;
27412;SDS011;14871;52.702;5.230;2022-08-14T11:00:59;8.73;;;8.02;;
27412;SDS011;14871;52.702;5.230;2022-08-14T11:03:39;9.07;;;8.35;;
27412;SDS011;14871;52.702;5.230;2022-08-14T11:06:11;10.85;;;8.77;;
27412;SDS011;14871;52.702;5.230;2022-08-14T11:08:40;9.43;;;8.27;;
27412;SDS011;14871;52.702;5.230;2022-08-14T11:11:05;7.97;;;7.28;;
27412;SDS011;14871;52.702;5.230;2022-08-14T11:13:31;8.60;;;7.80;;
27412;SDS011;14871;52.702;5.230;2022-08-14T11:15:58;9.18;;;8.27;;
27412;SDS011;14871;52.702;5.230;2022-08-14T11:18:25;9.20;;;8.25;;
27412;SDS011;14871;52.702;5.230;2022-08-14T11:20:53;9.15;;;8.35;;
27412;SDS011;14871;52.702;5.230;2022-08-14T11:23:26;8.52;;;7.63;;
27412;SDS011;14871;52.702;5.230;2022-08-14T11:25:55;8.73;;;7.88;;
27412;SDS011;14871;52.702;5.230;2022-08-14T11:28:22;12.65;;;8.88;;
27412;SDS011;14871;52.702;5.230;2022-08-14T11:30:50;9.25;;;8.27;;
27412;SDS011;14871;52.702;5.230;2022-08-14T11:33:20;11.00;;;8.70;;
27412;SDS011;14871;52.702;5.230;2022-08-14T11:35:48;9.60;;;8.68;;
27412;SDS011;14871;52.702;5.230;2022-08-14T11:38:14;11.10;;;8.63;;
27412;SDS011;14871;52.702;5.230;2022-08-14T11:40:42;9.23;;;8.35;;
27412;SDS011;14871;52.702;5.230;2022-08-14T11:43:09;8.52;;;7.70;;
27412;SDS011;14871;52.702;5.230;2022-08-14T11:45:35;9.73;;;8.43;;
27412;SDS011;14871;52.702;5.230;2022-08-14T11:48:17;9.63;;;8.52;;
27412;SDS011;14871;52.702;5.230;2022-08-14T11:50:44;8.93;;;8.02;;
27412;SDS011;14871;52.702;5.230;2022-08-14T11:53:22;7.97;;;7.18;;
27412;SDS011;14871;52.702;5.230;2022-08-14T11:56:04;8.52;;;7.72;;
27412;SDS011;14871;52.702;5.230;2022-08-14T11:58:31;8.20;;;7.40;;
27412;SDS011;14871;52.702;5.230;2022-08-14T12:00:59;7.28;;;6.63;;
27412;SDS011;14871;52.702;5.230;2022-08-14T12:04:06;8.02;;;7.22;;
27412;SDS011;14871;52.702;5.230;2022-08-14T12:06:22;8.10;;;7.30;;
27412;SDS011;14871;52.702;5.230;2022-08-14T12:08:49;12.48;;;7.55;;
27412;SDS011;14871;52.702;5.230;2022-08-14T12:11:18;8.85;;;7.95;;
27412;SDS011;14871;52.702;5.230;2022-08-14T12:13:44;7.43;;;6.82;;
27412;SDS011;14871;52.702;5.230;2022-08-14T12:16:12;6.85;;;6.25;;
27412;SDS011;14871;52.702;5.230;2022-08-14T12:18:44;7.65;;;6.88;;
27412;SDS011;14871;52.702;5.230;2022-08-14T12:21:16;7.28;;;6.43;;
27412;SDS011;14871;52.702;5.230;2022-08-14T12:24:03;7.07;;;6.57;;
27412;SDS011;14871;52.702;5.230;2022-08-14T12:26:33;8.32;;;6.75;;
27412;SDS011;14871;52.702;5.230;2022-08-14T12:29:12;6.85;;;6.32;;
27412;SDS011;14871;52.702;5.230;2022-08-14T12:31:40;7.55;;;6.75;;
27412;SDS011;14871;52.702;5.230;2022-08-14T12:34:07;7.47;;;6.82;;
27412;SDS011;14871;52.702;5.230;2022-08-14T12:36:35;6.68;;;6.00;;
27412;SDS011;14871;52.702;5.230;2022-08-14T12:39:03;6.95;;;6.25;;
27412;SDS011;14871;52.702;5.230;2022-08-14T12:41:50;6.97;;;6.22;;
27412;SDS011;14871;52.702;5.230;2022-08-14T12:44:27;7.80;;;5.90;;
27412;SDS011;14871;52.702;5.230;2022-08-14T12:47:01;6.45;;;5.80;;
27412;SDS011;14871;52.702;5.230;2022-08-14T12:49:29;7.75;;;5.63;;
27412;SDS011;14871;52.702;5.230;2022-08-14T12:51:55;6.53;;;5.88;;
27412;SDS011;14871;52.702;5.230;2022-08-14T12:54:23;7.38;;;5.43;;
27412;SDS011;14871;52.702;5.230;2022-08-14T12:56:48;6.43;;;5.93;;
27412;SDS011;14871;52.702;5.230;2022-08-14T12:59:14;6.80;;;5.95;;
27412;SDS011;14871;52.702;5.230;2022-08-14T13:01:40;7.57;;;5.75;;
27412;SDS011;14871;52.702;5.230;2022-08-14T13:04:10;5.18;;;4.78;;
27412;SDS011;14871;52.702;5.230;2022-08-14T13:06:45;7.18;;;5.10;;
27412;SDS011;14871;52.702;5.230;2022-08-14T13:09:14;8.38;;;5.55;;
27412;SDS011;14871;52.702;5.230;2022-08-14T13:11:47;6.88;;;5.28;;
27412;SDS011;14871;52.702;5.230;2022-08-14T13:14:16;5.55;;;5.13;;
27412;SDS011;14871;52.702;5.230;2022-08-14T13:16:46;5.80;;;5.32;;
27412;SDS011;14871;52.702;5.230;2022-08-14T13:19:14;6.60;;;5.30;;
27412;SDS011;14871;52.702;5.230;2022-08-14T13:21:41;6.35;;;5.72;;
27412;SDS011;14871;52.702;5.230;2022-08-14T13:24:09;6.50;;;5.72;;
27412;SDS011;14871;52.702;5.230;2022-08-14T13:26:42;5.93;;;5.35;;
27412;SDS011;14871;52.702;5.230;2022-08-14T13:29:10;5.93;;;5.30;;
27412;SDS011;14871;52.702;5.230;2022-08-14T13:31:38;5.85;;;5.32;;
27412;SDS011;14871;52.702;5.230;2022-08-14T13:34:11;5.93;;;5.38;;
27412;SDS011;14871;52.702;5.230;2022-08-14T13:36:37;6.70;;;6.10;;
27412;SDS011;14871;52.702;5.230;2022-08-14T13:39:04;5.75;;;5.32;;
27412;SDS011;14871;52.702;5.230;2022-08-14T13:41:30;6.68;;;6.07;;
27412;SDS011;14871;52.702;5.230;2022-08-14T13:43:57;6.38;;;5.78;;
27412;SDS011;14871;52.702;5.230;2022-08-14T13:46:23;8.35;;;5.75;;
27412;SDS011;14871;52.702;5.230;2022-08-14T13:48:49;6.68;;;5.63;;
27412;SDS011;14871;52.702;5.230;2022-08-14T13:51:15;6.40;;;5.65;;
27412;SDS011;14871;52.702;5.230;2022-08-14T13:53:45;7.55;;;5.63;;
27412;SDS011;14871;52.702;5.230;2022-08-14T13:56:13;6.55;;;5.47;;
27412;SDS011;14871;52.702;5.230;2022-08-14T13:58:40;6.30;;;5.68;;
27412;SDS011;14871;52.702;5.230;2022-08-14T14:01:08;5.78;;;5.38;;
27412;SDS011;14871;52.702;5.230;2022-08-14T14:03:37;6.05;;;5.50;;
27412;SDS011;14871;52.702;5.230;2022-08-14T14:06:08;5.85;;;5.22;;
27412;SDS011;14871;52.702;5.230;2022-08-14T14:08:35;5.57;;;5.07;;
27412;SDS011;14871;52.702;5.230;2022-08-14T14:11:10;5.70;;;4.80;;
27412;SDS011;14871;52.702;5.230;2022-08-14T14:13:39;6.20;;;5.70;;
27412;SDS011;14871;52.702;5.230;2022-08-14T14:16:05;5.63;;;5.13;;
27412;SDS011;14871;52.702;5.230;2022-08-14T14:18:35;5.47;;;4.95;;
27412;SDS011;14871;52.702;5.230;2022-08-14T14:21:02;6.72;;;4.90;;
27412;SDS011;14871;52.702;5.230;2022-08-14T14:23:30;4.72;;;4.32;;
27412;SDS011;14871;52.702;5.230;2022-08-14T14:25:58;5.47;;;4.97;;
27412;SDS011;14871;52.702;5.230;2022-08-14T14:28:28;5.72;;;5.20;;
27412;SDS011;14871;52.702;5.230;2022-08-14T14:30:55;5.22;;;4.72;;
27412;SDS011;14871;52.702;5.230;2022-08-14T14:33:21;4.88;;;4.28;;
27412;SDS011;14871;52.702;5.230;2022-08-14T14:35:49;4.38;;;4.00;;
27412;SDS011;14871;52.702;5.230;2022-08-14T14:38:15;5.35;;;4.88;;
27412;SDS011;14871;52.702;5.230;2022-08-14T14:40:42;6.00;;;5.55;;
27412;SDS011;14871;52.702;5.230;2022-08-14T14:43:10;5.70;;;5.20;;
27412;SDS011;14871;52.702;5.230;2022-08-14T14:45:38;5.55;;;4.97;;
27412;SDS011;14871;52.702;5.230;2022-08-14T14:48:07;6.05;;;5.30;;
27412;SDS011;14871;52.702;5.230;2022-08-14T14:50:33;7.63;;;5.45;;
27412;SDS011;14871;52.702;5.230;2022-08-14T14:53:02;6.05;;;4.50;;
27412;SDS011;14871;52.702;5.230;2022-08-14T14:55:28;5.75;;;5.22;;
27412;SDS011;14871;52.702;5.230;2022-08-14T14:57:55;7.05;;;5.35;;
27412;SDS011;14871;52.702;5.230;2022-08-14T15:00:25;6.30;;;5.80;;
27412;SDS011;14871;52.702;5.230;2022-08-14T15:02:51;6.10;;;5.32;;
27412;SDS011;14871;52.702;5.230;2022-08-14T15:05:19;6.78;;;6.07;;